createdAt,value
2019-04-26T00:00:50.770Z,66.27
2019-04-26T00:03:21.158Z,66.26
2019-04-26T00:05:50.353Z,67.88
2019-04-26T00:08:19.042Z,68.05
2019-04-26T00:10:52.418Z,67.25
2019-04-26T00:13:41.134Z,66.89
2019-04-26T00:16:12.583Z,68.73
2019-04-26T00:18:41.441Z,68.46
2019-04-26T00:21:10.645Z,68.12
2019-04-26T00:23:40.414Z,67.74
2019-04-26T00:26:09.313Z,67.64
2019-04-26T00:28:38.015Z,68.11
2019-04-26T00:31:06.727Z,68.50
2019-04-26T00:33:35.434Z,69.33
2019-04-26T00:36:04.107Z,68.86
2019-04-26T00:38:32.778Z,67.42
2019-04-26T00:41:01.754Z,67.70
2019-04-26T00:43:30.728Z,67.99
2019-04-26T00:46:01.757Z,68.26
2019-04-26T00:48:32.091Z,68.80
2019-04-26T00:51:03.819Z,69.31
2019-04-26T00:53:35.145Z,69.72
2019-04-26T00:56:06.558Z,69.73
2019-04-26T00:58:36.242Z,69.40
2019-04-26T01:01:05.515Z,69.53
2019-04-26T01:03:34.483Z,69.28
2019-04-26T01:06:04.783Z,69.00
2019-04-26T01:08:33.465Z,69.38
2019-04-26T01:11:02.140Z,69.62
2019-04-26T01:13:30.844Z,70.04
2019-04-26T01:15:59.553Z,70.82
2019-04-26T01:18:28.236Z,70.93
2019-04-26T01:20:59.853Z,70.96
2019-04-26T01:23:30.596Z,70.18
2019-04-26T01:26:10.887Z,70.01
2019-04-26T01:28:42.506Z,70.91
2019-04-26T01:31:12.230Z,71.50
2019-04-26T01:33:42.579Z,71.70
2019-04-26T01:36:13.185Z,71.71
2019-04-26T01:38:43.818Z,72.25
2019-04-26T01:41:17.114Z,72.13
2019-04-26T01:43:48.992Z,72.13
2019-04-26T01:46:23.150Z,71.34
2019-04-26T01:49:04.106Z,71.05
2019-04-26T01:51:41.649Z,71.26
2019-04-26T01:54:13.487Z,71.72
2019-04-26T01:56:42.413Z,71.79
2019-04-26T01:59:14.241Z,71.79
2019-04-26T02:02:00.621Z,72.46
2019-04-26T02:04:31.967Z,72.92
2019-04-26T02:07:02.039Z,72.88
2019-04-26T02:09:31.012Z,72.67
2019-04-26T02:12:00.695Z,72.75
2019-04-26T02:14:29.571Z,72.91
2019-04-26T02:16:59.647Z,72.48
2019-04-26T02:19:29.473Z,72.59
2019-04-26T02:22:00.054Z,72.99
2019-04-26T02:24:30.937Z,73.23
2019-04-26T02:27:01.703Z,73.94
2019-04-26T02:29:30.460Z,73.85
2019-04-26T02:32:02.490Z,74.13
2019-04-26T02:34:36.053Z,73.68
2019-04-26T02:37:07.942Z,73.44
2019-04-26T02:39:39.324Z,73.63
2019-04-26T02:42:10.901Z,73.04
2019-04-26T02:44:44.092Z,73.31
2019-04-26T02:47:30.481Z,73.75
2019-04-26T02:50:03.930Z,73.36
2019-04-26T02:52:44.678Z,73.61
2019-04-26T02:55:16.270Z,73.64
2019-04-26T02:57:51.085Z,74.19
2019-04-26T03:00:21.021Z,73.36
2019-04-26T03:02:55.172Z,73.54
2019-04-26T03:05:25.079Z,73.82
2019-04-26T03:07:59.521Z,74.03
2019-04-26T03:10:33.814Z,74.20
2019-04-26T03:13:05.117Z,74.30
2019-04-26T03:15:44.241Z,73.82
2019-04-26T03:18:35.515Z,73.85
2019-04-26T03:21:25.110Z,73.80
2019-04-26T03:24:11.855Z,74.37
2019-04-26T03:26:46.505Z,75.29
2019-04-26T03:29:26.760Z,75.61
2019-04-26T03:32:07.432Z,75.78
2019-04-26T03:34:58.473Z,74.52
2019-04-26T03:37:44.476Z,75.15
2019-04-26T03:40:17.836Z,74.02
2019-04-26T03:42:51.880Z,72.90
2019-04-26T03:45:44.651Z,72.81
2019-04-26T03:48:28.549Z,72.53
2019-04-26T03:51:22.988Z,73.82
2019-04-26T03:54:00.273Z,73.98
2019-04-26T03:56:35.914Z,73.22
2019-04-26T03:59:08.359Z,72.89
2019-04-26T04:01:46.038Z,72.86
2019-04-26T04:04:37.096Z,72.44
2019-04-26T04:07:07.743Z,72.62
2019-04-26T04:09:41.447Z,72.20
2019-04-26T04:12:31.474Z,72.13
2019-04-26T04:15:15.150Z,72.71
2019-04-26T04:17:50.190Z,72.62
2019-04-26T04:20:48.192Z,71.74
2019-04-26T04:23:34.760Z,71.49
2019-04-26T04:26:06.419Z,71.71
2019-04-26T04:28:54.312Z,71.48
2019-04-26T04:31:31.997Z,70.87
2019-04-26T04:34:03.595Z,70.86
2019-04-26T04:36:35.258Z,70.79
2019-04-26T04:39:13.265Z,70.28
2019-04-26T04:41:47.009Z,69.58
2019-04-26T04:44:34.955Z,69.43
2019-04-26T04:47:23.537Z,69.25
2019-04-26T04:50:00.638Z,68.61
2019-04-26T04:52:48.210Z,68.74
2019-04-26T04:55:36.047Z,67.51
2019-04-26T04:58:22.765Z,67.01
2019-04-26T05:01:24.387Z,66.67
2019-04-26T05:03:59.559Z,66.34
2019-04-26T05:06:49.079Z,65.66
2019-04-26T05:09:23.587Z,65.29
2019-04-26T05:11:55.199Z,65.03
2019-04-26T05:14:46.167Z,64.38
2019-04-26T05:17:43.191Z,63.54
2019-04-26T05:20:32.549Z,62.50
2019-04-26T05:23:23.397Z,62.40
2019-04-26T05:26:21.836Z,63.24
2019-04-26T05:29:03.667Z,63.47
2019-04-26T05:31:45.902Z,62.50
2019-04-26T05:34:19.255Z,62.23
2019-04-26T05:37:12.209Z,62.10
2019-04-26T05:39:55.819Z,62.31
2019-04-26T05:42:55.753Z,62.88
2019-04-26T05:45:34.941Z,62.76
2019-04-26T05:48:35.923Z,61.77
2019-04-26T05:51:42.381Z,60.43
2019-04-26T05:54:54.379Z,59.74
2019-04-26T05:57:58.495Z,59.31
2019-04-26T06:00:37.813Z,57.99
2019-04-26T06:03:29.189Z,57.67
2019-04-26T06:06:29.344Z,57.51
2019-04-26T06:09:30.726Z,57.87
2019-04-26T06:12:23.354Z,57.99
2019-04-26T06:15:18.757Z,58.37
2019-04-26T06:18:09.445Z,58.40
2019-04-26T06:20:46.986Z,57.79
2019-04-26T06:23:47.372Z,57.40
2019-04-26T06:26:41.695Z,57.00
2019-04-26T06:29:32.668Z,56.95
2019-04-26T06:32:21.608Z,56.68
2019-04-26T06:35:16.121Z,55.47
2019-04-26T06:38:07.431Z,55.41
2019-04-26T06:41:12.031Z,55.69
2019-04-26T06:43:55.144Z,55.92
2019-04-26T06:46:54.937Z,54.76
2019-04-26T06:49:38.027Z,53.48
2019-04-26T06:52:12.666Z,52.25
2019-04-26T06:54:57.685Z,52.55
2019-04-26T06:57:59.388Z,50.55
2019-04-26T07:00:49.253Z,49.80
2019-04-26T07:03:29.565Z,46.82
2019-04-26T07:06:04.506Z,45.18
2019-04-26T07:08:41.551Z,42.48
2019-04-26T07:11:26.224Z,41.34
2019-04-26T07:14:15.967Z,38.74
2019-04-26T07:17:00.642Z,37.39
2019-04-26T07:20:04.038Z,36.58
2019-04-26T07:23:02.081Z,34.96
2019-04-26T07:25:53.192Z,33.56
2019-04-26T07:28:30.737Z,33.22
2019-04-26T07:31:18.707Z,33.42
2019-04-26T07:34:09.482Z,31.88
2019-04-26T07:36:53.221Z,31.40
2019-04-26T07:39:46.932Z,31.24
2019-04-26T07:42:47.382Z,30.60
2019-04-26T07:45:25.981Z,30.21
2019-04-26T07:48:18.580Z,29.60
2019-04-26T07:51:24.857Z,29.33
2019-04-26T07:54:25.294Z,29.18
2019-04-26T07:57:41.016Z,29.16
2019-04-26T08:00:18.741Z,27.78
2019-04-26T08:03:13.094Z,28.84
2019-04-26T08:05:52.096Z,28.53
2019-04-26T08:08:23.509Z,27.96
2019-04-26T08:11:06.924Z,28.06
2019-04-26T08:13:38.510Z,27.12
2019-04-26T08:16:14.698Z,27.55
2019-04-26T08:18:48.140Z,28.03
2019-04-26T08:21:31.513Z,28.10
2019-04-26T08:24:08.429Z,26.83
2019-04-26T08:26:40.089Z,27.04
2019-04-26T08:29:12.667Z,26.12
2019-04-26T08:31:44.551Z,26.37
2019-04-26T08:34:21.113Z,26.66
2019-04-26T08:37:06.671Z,25.72
2019-04-26T08:39:45.480Z,25.71
2019-04-26T08:42:20.060Z,24.70
2019-04-26T08:44:58.562Z,24.45
2019-04-26T08:47:29.745Z,24.15
2019-04-26T08:50:01.986Z,24.46
2019-04-26T08:52:33.574Z,24.13
2019-04-26T08:55:06.014Z,23.50
2019-04-26T08:57:38.189Z,22.72
2019-04-26T09:00:32.253Z,21.86
2019-04-26T09:03:11.646Z,22.11
2019-04-26T09:05:57.628Z,22.24
2019-04-26T09:08:29.218Z,22.15
2019-04-26T09:11:00.885Z,21.80
2019-04-26T09:13:35.128Z,22.34
2019-04-26T09:16:06.953Z,21.53
2019-04-26T09:18:43.216Z,21.49
2019-04-26T09:21:06.849Z,21.42
2019-04-26T09:23:40.144Z,20.92
2019-04-26T09:26:25.353Z,20.55
2019-04-26T09:29:11.781Z,19.92
2019-04-26T09:31:44.798Z,20.08
2019-04-26T09:34:22.116Z,20.88
2019-04-26T09:36:50.775Z,20.84
2019-04-26T09:39:20.651Z,20.08
2019-04-26T09:41:49.513Z,22.31
2019-04-26T09:44:37.686Z,22.04
2019-04-26T09:47:26.426Z,21.14
2019-04-26T09:50:15.418Z,21.31
2019-04-26T09:52:44.789Z,20.32
2019-04-26T09:55:14.073Z,19.25
2019-04-26T09:57:42.750Z,18.58
2019-04-26T10:00:15.329Z,18.81
2019-04-26T10:02:44.063Z,18.52
2019-04-26T10:05:13.594Z,19.19
2019-04-26T10:07:42.614Z,19.74
2019-04-26T10:10:22.371Z,19.79
2019-04-26T10:12:44.155Z,18.85
2019-04-26T10:15:22.615Z,19.24
2019-04-26T10:17:52.318Z,18.54
2019-04-26T10:20:21.039Z,18.56
2019-04-26T10:22:50.050Z,18.95
2019-04-26T10:25:18.806Z,19.63
2019-04-26T10:27:47.614Z,19.65
2019-04-26T10:30:17.670Z,18.56
2019-04-26T10:32:46.769Z,17.72
2019-04-26T10:35:17.654Z,17.62
2019-04-26T10:37:48.083Z,17.30
2019-04-26T10:40:16.584Z,16.26
2019-04-26T10:42:45.297Z,15.69
2019-04-26T10:45:16.178Z,15.11
2019-04-26T10:47:44.780Z,14.93
2019-04-26T10:50:14.297Z,14.72
2019-04-26T10:53:02.609Z,14.49
2019-04-26T10:55:41.989Z,15.38
2019-04-26T10:58:31.905Z,15.44
2019-04-26T11:01:06.702Z,15.85
2019-04-26T11:03:35.375Z,15.54
2019-04-26T11:06:04.051Z,15.10
2019-04-26T11:08:32.736Z,14.44
2019-04-26T11:11:01.428Z,15.38
2019-04-26T11:13:30.089Z,15.48
2019-04-26T11:16:02.495Z,14.47
2019-04-26T11:18:29.157Z,14.96
2019-04-26T11:20:57.857Z,15.27
2019-04-26T11:23:26.517Z,14.59
2019-04-26T11:25:57.965Z,14.42
2019-04-26T11:28:25.621Z,15.18
2019-04-26T11:30:57.317Z,14.43
2019-04-26T11:33:24.669Z,14.94
2019-04-26T11:35:53.356Z,16.48
2019-04-26T11:38:22.150Z,15.65
2019-04-26T11:41:05.142Z,14.95
2019-04-26T11:43:21.289Z,15.94
2019-04-26T11:45:50.546Z,16.11
2019-04-26T11:48:19.545Z,15.25
2019-04-26T11:50:51.822Z,14.76
2019-04-26T11:53:18.686Z,15.71
2019-04-26T11:55:47.357Z,15.84
2019-04-26T11:58:17.803Z,15.73
2019-04-26T12:00:50.710Z,15.56
2019-04-26T12:03:21.164Z,16.00
2019-04-26T12:05:51.349Z,15.64
2019-04-26T12:08:21.605Z,15.22
2019-04-26T12:10:50.258Z,14.25
2019-04-26T12:13:21.269Z,13.87
2019-04-26T12:15:50.263Z,14.20
2019-04-26T12:18:19.012Z,13.79
2019-04-26T12:20:47.732Z,14.49
2019-04-26T12:23:20.912Z,13.90
2019-04-26T12:25:48.295Z,15.43
2019-04-26T12:28:17.333Z,16.71
2019-04-26T12:30:47.130Z,18.45
2019-04-26T12:33:15.829Z,17.37
2019-04-26T12:35:44.496Z,17.17
2019-04-26T12:38:13.179Z,15.77
2019-04-26T12:40:42.310Z,17.82
2019-04-26T12:43:12.237Z,16.52
2019-04-26T12:45:47.463Z,16.33
2019-04-26T12:48:17.303Z,16.69
2019-04-26T12:50:45.971Z,17.03
2019-04-26T12:53:14.652Z,17.98
2019-04-26T12:55:43.313Z,18.07
2019-04-26T12:58:15.103Z,18.00
2019-04-26T13:00:53.166Z,16.55
2019-04-26T13:03:20.101Z,16.24
2019-04-26T13:05:43.375Z,17.14
2019-04-26T13:08:13.114Z,16.74
2019-04-26T13:10:46.997Z,15.83
2019-04-26T13:13:17.263Z,15.62
2019-04-26T13:16:07.226Z,15.23
2019-04-26T13:18:35.941Z,15.60
2019-04-26T13:21:05.265Z,15.54
2019-04-26T13:23:33.935Z,15.45
2019-04-26T13:26:02.704Z,16.09
2019-04-26T13:28:31.399Z,16.43
2019-04-26T13:31:02.254Z,16.94
2019-04-26T13:33:30.524Z,18.16
2019-04-26T13:36:03.207Z,18.59
2019-04-26T13:38:29.654Z,18.76
2019-04-26T13:40:59.531Z,18.98
2019-04-26T13:43:28.874Z,18.18
2019-04-26T13:46:01.926Z,17.74
2019-04-26T13:48:32.242Z,17.36
2019-04-26T13:51:08.658Z,17.08
2019-04-26T13:53:37.331Z,17.75
2019-04-26T13:56:06.004Z,19.86
2019-04-26T13:58:34.695Z,19.46
2019-04-26T14:01:05.377Z,19.19
2019-04-26T14:03:34.048Z,19.10
2019-04-26T14:06:02.768Z,18.91
2019-04-26T14:08:31.473Z,20.03
2019-04-26T14:11:00.143Z,20.23
2019-04-26T14:13:28.939Z,19.30
2019-04-26T14:15:57.712Z,19.07
2019-04-26T14:18:26.583Z,19.94
2019-04-26T14:20:59.020Z,21.39
2019-04-26T14:23:27.212Z,20.59
2019-04-26T14:25:57.460Z,20.34
2019-04-26T14:28:26.245Z,20.75
2019-04-26T14:30:54.945Z,21.73
2019-04-26T14:33:27.057Z,21.38
2019-04-26T14:35:54.019Z,21.50
2019-04-26T14:38:27.862Z,21.78
2019-04-26T14:41:03.719Z,21.40
2019-04-26T14:43:23.614Z,21.10
2019-04-26T14:45:55.944Z,22.00
2019-04-26T14:48:35.325Z,21.93
2019-04-26T14:50:53.392Z,22.03
2019-04-26T14:53:22.328Z,21.69
2019-04-26T14:55:51.231Z,22.39
2019-04-26T14:58:23.873Z,22.19
2019-04-26T15:01:08.540Z,21.98
2019-04-26T15:03:38.799Z,22.74
2019-04-26T15:06:16.762Z,22.40
2019-04-26T15:08:46.811Z,22.13
2019-04-26T15:11:14.081Z,23.39
2019-04-26T15:13:43.724Z,23.82
2019-04-26T15:16:14.282Z,24.02
2019-04-26T15:18:43.172Z,25.91
2019-04-26T15:21:12.899Z,27.06
2019-04-26T15:23:41.703Z,27.99
2019-04-26T15:26:10.365Z,28.54
2019-04-26T15:28:39.034Z,28.90
2019-04-26T15:31:07.731Z,30.59
2019-04-26T15:33:36.416Z,31.34
2019-04-26T15:36:10.251Z,31.81
2019-04-26T15:38:41.352Z,32.24
2019-04-26T15:41:17.502Z,32.55
2019-04-26T15:43:51.911Z,32.68
2019-04-26T15:46:35.052Z,32.73
2019-04-26T15:49:14.336Z,33.19
2019-04-26T15:51:43.055Z,32.92
2019-04-26T15:54:11.745Z,33.16
2019-04-26T15:56:40.427Z,34.08
2019-04-26T15:59:09.095Z,34.42
2019-04-26T16:01:45.346Z,35.42
2019-04-26T16:04:08.172Z,35.85
2019-04-26T16:06:37.314Z,36.24
2019-04-26T16:09:09.453Z,36.33
2019-04-26T16:11:38.130Z,36.22
2019-04-26T16:14:06.916Z,36.71
2019-04-26T16:16:35.586Z,37.01
2019-04-26T16:19:04.376Z,37.24
2019-04-26T16:21:33.062Z,37.42
2019-04-26T16:24:02.793Z,37.75
2019-04-26T16:26:32.938Z,37.92
2019-04-26T16:29:06.185Z,38.16
2019-04-26T16:31:42.077Z,38.24
2019-04-26T16:34:23.405Z,38.39
2019-04-26T16:36:52.636Z,38.88
2019-04-26T16:39:23.835Z,38.99
2019-04-26T16:41:52.641Z,39.51
2019-04-26T16:47:01.054Z,39.86
2019-04-26T16:49:23.457Z,40.29
2019-04-26T16:52:01.538Z,40.65
2019-04-26T16:54:26.539Z,40.75
2019-04-26T16:56:53.033Z,40.78
2019-04-26T16:59:24.171Z,41.09
2019-04-26T17:00:32.073Z,39.61
2019-04-26T17:01:53.600Z,41.65
2019-04-26T17:04:28.690Z,42.12
2019-04-26T17:07:01.725Z,42.30
2019-04-26T17:09:29.681Z,42.73
2019-04-26T17:11:57.291Z,42.96
2019-04-26T17:14:26.004Z,43.17
2019-04-26T17:16:54.737Z,43.24
2019-04-26T17:19:23.524Z,43.62
2019-04-26T17:22:14.135Z,43.67
2019-04-26T17:24:46.354Z,43.62
2019-04-26T17:27:15.899Z,43.56
2019-04-26T17:29:44.591Z,43.21
2019-04-26T17:32:17.182Z,43.10
2019-04-26T17:34:43.773Z,43.01
2019-04-26T17:37:17.055Z,43.13
2019-04-26T17:39:42.936Z,43.03
2019-04-26T17:42:11.683Z,42.95
2019-04-26T17:44:41.235Z,42.98
2019-04-26T17:47:10.660Z,43.33
2019-04-26T17:49:42.329Z,43.56
2019-04-26T17:52:11.551Z,43.76
2019-04-26T17:54:47.475Z,43.66
2019-04-26T17:57:14.435Z,43.87
2019-04-26T17:59:47.705Z,44.18
2019-04-26T18:02:24.188Z,44.60
2019-04-26T18:04:43.134Z,44.97
2019-04-26T18:07:36.104Z,45.28
2019-04-26T18:09:46.493Z,45.50
2019-04-26T18:12:13.036Z,45.81
2019-04-26T18:14:41.790Z,45.40
2019-04-26T18:17:36.451Z,45.23
2019-04-26T18:20:08.005Z,44.59
2019-04-26T18:22:47.560Z,44.34
2019-04-26T18:25:16.324Z,44.36
2019-04-26T18:27:45.019Z,44.39
2019-04-26T18:30:14.444Z,43.99
2019-04-26T18:32:47.780Z,44.05
2019-04-26T18:35:16.859Z,44.21
2019-04-26T18:37:44.036Z,44.23
2019-04-26T18:40:13.282Z,44.04
2019-04-26T18:42:43.352Z,44.03
2019-04-26T18:45:13.897Z,43.89
2019-04-26T18:47:43.856Z,44.18
2019-04-26T18:50:15.295Z,44.19
2019-04-26T18:52:56.485Z,44.36
2019-04-26T18:55:30.104Z,44.62
2019-04-26T18:58:01.780Z,45.02
2019-04-26T19:00:29.281Z,45.21
2019-04-26T19:03:00.010Z,45.73
2019-04-26T19:05:30.227Z,46.04
2019-04-26T19:07:58.774Z,46.43
2019-04-26T19:10:29.228Z,46.62
2019-04-26T19:13:00.203Z,47.17
2019-04-26T19:15:40.236Z,47.57
2019-04-26T19:18:12.175Z,47.67
2019-04-26T19:20:48.667Z,47.94
2019-04-26T19:23:17.332Z,48.07
2019-04-26T19:25:46.016Z,48.38
2019-04-26T19:28:14.909Z,48.73
2019-04-26T19:30:49.119Z,48.79
2019-04-26T19:33:16.758Z,49.17
2019-04-26T19:35:47.438Z,49.03
2019-04-26T19:38:14.940Z,49.09
2019-04-26T19:40:47.650Z,49.04
2019-04-26T19:43:13.969Z,48.91
2019-04-26T19:46:01.452Z,49.14
2019-04-26T19:48:49.555Z,49.29
2019-04-26T19:51:23.694Z,49.71
2019-04-26T19:53:58.211Z,49.88
2019-04-26T19:56:28.471Z,49.92
2019-04-26T19:58:58.611Z,49.96
2019-04-26T20:01:28.092Z,50.36
2019-04-26T20:03:56.818Z,50.88
2019-04-26T20:06:26.891Z,51.04
2019-04-26T20:08:55.861Z,51.29
2019-04-26T20:11:24.616Z,51.69
2019-04-26T20:13:55.188Z,52.48
2019-04-26T20:16:25.815Z,53.34
2019-04-26T20:18:54.358Z,53.34
2019-04-26T20:21:26.145Z,53.66
2019-04-26T20:23:54.844Z,54.32
2019-04-26T20:26:23.524Z,54.32
2019-04-26T20:28:52.207Z,54.02
2019-04-26T20:31:22.439Z,54.18
2019-04-26T20:33:51.122Z,54.50
2019-04-26T20:36:21.549Z,54.85
2019-04-26T20:38:52.082Z,55.01
2019-04-26T20:41:22.015Z,55.33
2019-04-26T20:44:04.310Z,55.55
2019-04-26T20:46:24.776Z,55.97
2019-04-26T20:48:52.062Z,56.16
2019-04-26T20:51:22.541Z,56.52
2019-04-26T20:53:51.471Z,57.01
2019-04-26T20:56:20.141Z,57.48
2019-04-26T20:58:48.835Z,57.64
2019-04-26T21:01:17.514Z,57.91
2019-04-26T21:03:46.379Z,58.17
2019-04-26T21:06:15.065Z,58.37
2019-04-26T21:08:43.752Z,58.77
2019-04-26T21:11:13.767Z,58.85
2019-04-26T21:13:42.507Z,58.97
2019-04-26T21:16:15.258Z,59.11
2019-04-26T21:18:44.126Z,59.02
2019-04-26T21:21:12.256Z,59.20
2019-04-26T21:23:42.209Z,59.33
2019-04-26T21:26:19.440Z,59.66
2019-04-26T21:29:06.760Z,59.90
2019-04-26T21:31:45.658Z,59.76
2019-04-26T21:34:27.305Z,59.89
2019-04-26T21:37:20.498Z,60.06
2019-04-26T21:40:03.940Z,60.14
2019-04-26T21:42:33.387Z,60.43
2019-04-26T21:45:03.591Z,60.89
2019-04-26T21:47:35.137Z,61.02
2019-04-26T21:50:04.234Z,61.07
2019-04-26T21:52:34.305Z,61.03
2019-04-26T21:55:04.859Z,61.01
2019-04-26T21:57:35.027Z,60.97
2019-04-26T22:00:07.199Z,60.68
2019-04-26T22:02:37.473Z,60.54
2019-04-26T22:05:08.001Z,60.50
2019-04-26T22:07:39.503Z,60.49
2019-04-26T22:10:15.399Z,60.29
2019-04-26T22:12:45.089Z,60.51
2019-04-26T22:15:35.880Z,60.69
2019-04-26T22:18:03.740Z,60.61
2019-04-26T22:20:36.997Z,61.55
2019-04-26T22:23:16.345Z,60.65
2019-04-26T22:25:45.262Z,60.77
2019-04-26T22:28:14.134Z,60.92
2019-04-26T22:30:42.934Z,60.88
2019-04-26T22:33:13.184Z,60.76
2019-04-26T22:35:43.219Z,61.05
2019-04-26T22:38:12.137Z,60.91
2019-04-26T22:40:40.820Z,61.02
2019-04-26T22:43:19.927Z,61.24
2019-04-26T22:45:53.585Z,61.41
2019-04-26T22:48:26.810Z,61.50
2019-04-26T22:50:58.580Z,61.77
2019-04-26T22:53:27.491Z,62.00
2019-04-26T22:55:57.674Z,62.18
2019-04-26T22:58:28.801Z,62.47
2019-04-26T23:00:58.568Z,62.67
2019-04-26T23:03:28.339Z,62.58
2019-04-26T23:05:57.069Z,62.82
2019-04-26T23:08:25.733Z,63.88
2019-04-26T23:10:56.016Z,63.07
2019-04-26T23:13:33.769Z,62.85
2019-04-26T23:16:14.353Z,62.86
2019-04-26T23:18:46.227Z,63.11
2019-04-26T23:21:25.671Z,63.62
2019-04-26T23:23:54.374Z,63.80
2019-04-26T23:26:23.323Z,63.88
2019-04-26T23:28:53.501Z,63.62
2019-04-26T23:31:23.698Z,63.72
2019-04-26T23:33:53.893Z,63.75
2019-04-26T23:36:24.105Z,64.30
2019-04-26T23:38:53.275Z,63.50
2019-04-26T23:41:23.619Z,63.09
2019-04-26T23:43:56.452Z,62.85
2019-04-26T23:46:25.953Z,63.00
2019-04-26T23:48:54.837Z,63.23
2019-04-26T23:51:23.823Z,63.55
2019-04-26T23:53:55.005Z,63.55
2019-04-26T23:56:25.287Z,63.68
2019-04-26T23:58:54.156Z,63.91
